Time;durP1;ratioP1;P1;durP2;ratioP2;P2;SDS_P1;SDS_P2;PMS_P1;PMS_P2;Temp;Humidity;BMP_temperature;BMP_pressure;BME280_temperature;BME280_humidity;BME280_pressure;Samples;Min_cycle;Max_cycle;Signal;HPM_P1;HPM_P2
2022/10/01 00:00:50;;;;;;;35.10;9.40;;;;;;;5.20;100.00;97640.66;5022389;28;20064;-55
2022/10/01 00:03:16;;;;;;;38.72;10.15;;;;;;;5.13;100.00;97635.69;5020809;28;20021;-57
2022/10/01 00:05:41;;;;;;;44.13;10.23;;;;;;;5.26;100.00;97641.41;5020995;28;20049;-54
2022/10/01 00:08:07;;;;;;;35.55;9.40;;;;;;;5.38;100.00;97641.06;5020851;28;20029;-54
2022/10/01 00:10:32;;;;;;;40.90;9.75;;;;;;;5.38;100.00;97643.66;5021662;28;20044;-54
2022/10/01 00:12:57;;;;;;;36.58;9.57;;;;;;;5.33;100.00;97648.97;5021564;28;20056;-54
2022/10/01 00:15:25;;;;;;;41.58;10.55;;;;;;;5.12;100.00;97637.41;5020678;28;20025;-54
2022/10/01 00:17:51;;;;;;;41.53;10.35;;;;;;;5.30;100.00;97643.00;5020672;28;20075;-55
2022/10/01 00:20:16;;;;;;;37.05;10.20;;;;;;;4.95;100.00;97643.00;5021026;28;20048;-54
2022/10/01 00:22:42;;;;;;;41.47;10.05;;;;;;;4.94;100.00;97636.09;5022561;28;20164;-57
2022/10/01 00:25:07;;;;;;;40.63;9.93;;;;;;;5.20;100.00;97643.25;5020699;28;20033;-54
2022/10/01 00:27:34;;;;;;;39.35;10.27;;;;;;;5.26;100.00;97646.56;5021808;28;20135;-54
2022/10/01 00:30:00;;;;;;;36.95;9.55;;;;;;;5.02;100.00;97644.53;5021071;28;20040;-54
2022/10/01 00:32:26;;;;;;;45.80;10.25;;;;;;;4.64;100.00;97640.28;5022857;28;20041;-54
2022/10/01 00:34:52;;;;;;;41.70;10.43;;;;;;;5.10;100.00;97641.75;5022049;28;20034;-55
2022/10/01 00:37:19;;;;;;;39.03;10.90;;;;;;;4.94;100.00;97641.28;5020201;28;20044;-54
2022/10/01 00:39:44;;;;;;;36.78;10.00;;;;;;;4.90;100.00;97638.81;5023158;28;20104;-54
2022/10/01 00:42:30;;;;;;;40.15;10.35;;;;;;;4.86;100.00;97638.03;5020859;28;20048;-54
2022/10/01 00:44:57;;;;;;;34.80;9.35;;;;;;;5.02;100.00;97634.22;5021599;28;20041;-54
2022/10/01 00:47:45;;;;;;;38.28;9.43;;;;;;;4.88;100.00;97636.28;5022057;28;20084;-55
2022/10/01 00:50:16;;;;;;;38.30;9.70;;;;;;;4.81;100.00;97635.56;5023036;28;20120;-54
2022/10/01 00:52:46;;;;;;;50.75;11.07;;;;;;;4.71;100.00;97639.25;5021547;28;20384;-54
2022/10/01 00:55:40;;;;;;;38.25;9.75;;;;;;;5.01;100.00;97642.00;5018807;28;20104;-54
2022/10/01 00:58:07;;;;;;;34.17;9.27;;;;;;;4.99;100.00;97643.78;5020371;28;20083;-55
2022/10/01 01:00:35;;;;;;;40.28;9.45;;;;;;;4.82;100.00;97637.25;5020850;28;20037;-54
2022/10/01 01:03:01;;;;;;;42.28;10.50;;;;;;;4.41;100.00;97635.63;5022574;28;20713;-55
2022/10/01 01:05:26;;;;;;;42.90;9.82;;;;;;;4.29;100.00;97626.44;5022454;28;20029;-54
2022/10/01 01:07:52;;;;;;;48.20;10.77;;;;;;;4.34;100.00;97626.34;5021700;28;20030;-53
2022/10/01 01:10:50;;;;;;;43.92;9.13;;;;;;;4.32;100.00;97631.53;5021593;28;20029;-57
2022/10/01 01:13:42;;;;;;;43.13;9.48;;;;;;;4.68;100.00;97628.16;5019925;28;20029;-54
2022/10/01 01:16:10;;;;;;;33.80;9.20;;;;;;;4.62;100.00;97629.13;5020485;28;20657;-54
2022/10/01 01:18:41;;;;;;;43.25;9.68;;;;;;;4.87;100.00;97631.13;5020061;28;20025;-54
2022/10/01 01:21:32;;;;;;;43.33;9.90;;;;;;;4.44;100.00;97610.56;5019546;28;20128;-54
2022/10/01 01:24:29;;;;;;;44.08;10.68;;;;;;;4.61;100.00;97622.25;5014976;28;20029;-53
2022/10/01 01:27:05;;;;;;;36.47;9.70;;;;;;;4.44;100.00;97617.50;5019968;28;20156;-56
2022/10/01 01:29:41;;;;;;;36.22;10.15;;;;;;;4.72;100.00;97615.09;5021668;28;20039;-54
2022/10/01 01:32:13;;;;;;;37.22;10.45;;;;;;;4.68;100.00;97618.66;5020592;28;20045;-54
2022/10/01 01:34:42;;;;;;;42.35;9.65;;;;;;;4.42;100.00;97604.59;5022129;28;20416;-53
2022/10/01 01:37:13;;;;;;;40.50;10.75;;;;;;;4.59;100.00;97603.38;5020192;28;20506;-54
2022/10/01 01:39:43;;;;;;;36.15;9.45;;;;;;;4.35;100.00;97604.78;5020119;28;20067;-54
2022/10/01 01:42:16;;;;;;;34.83;9.82;;;;;;;4.77;100.00;97602.94;5020149;28;20128;-53
2022/10/01 01:44:45;;;;;;;38.13;9.50;;;;;;;4.57;100.00;97607.72;5019703;28;20028;-56
2022/10/01 01:47:12;;;;;;;37.08;9.95;;;;;;;4.80;100.00;97602.88;5021092;28;20095;-53
2022/10/01 01:49:38;;;;;;;34.97;9.55;;;;;;;4.82;100.00;97605.41;5020155;28;20068;-57
2022/10/01 01:52:12;;;;;;;43.20;9.85;;;;;;;4.47;100.00;97611.38;5019473;28;20049;-54
2022/10/01 01:54:38;;;;;;;44.50;10.20;;;;;;;4.52;100.00;97601.81;5020715;28;20105;-54
2022/10/01 01:57:05;;;;;;;40.10;10.07;;;;;;;4.25;100.00;97596.41;5019445;28;20072;-54
2022/10/01 01:59:32;;;;;;;47.45;10.45;;;;;;;4.24;100.00;97592.94;5021074;28;21015;-57
2022/10/01 02:01:58;;;;;;;42.03;10.00;;;;;;;4.56;100.00;97598.28;5020550;28;20458;-57
2022/10/01 02:04:32;;;;;;;44.70;9.88;;;;;;;4.32;100.00;97597.97;5020206;28;20041;-54
2022/10/01 02:07:10;;;;;;;28.15;8.60;;;;;;;4.53;100.00;97598.34;5019203;28;20064;-55
2022/10/01 02:09:55;;;;;;;41.45;10.07;;;;;;;4.21;100.00;97582.72;5019915;28;20164;-54
2022/10/01 02:12:49;;;;;;;44.08;9.95;;;;;;;4.37;100.00;97587.53;5019535;28;20163;-57
2022/10/01 02:15:26;;;;;;;33.63;8.57;;;;;;;4.04;100.00;97579.63;5021512;28;20055;-53
2022/10/01 02:18:15;;;;;;;53.10;10.20;;;;;;;4.58;100.00;97587.03;5020089;28;20587;-54
2022/10/01 02:21:06;;;;;;;38.08;9.25;;;;;;;4.27;100.00;97584.31;5021150;28;20640;-54
2022/10/01 02:23:57;;;;;;;28.40;8.73;;;;;;;4.35;100.00;97582.38;5019634;28;20028;-55
2022/10/01 02:26:24;;;;;;;44.20;10.43;;;;;;;4.27;100.00;97575.72;5019108;28;20048;-57
2022/10/01 02:28:54;;;;;;;49.33;10.38;;;;;;;4.16;100.00;97575.97;5019559;28;20075;-54
2022/10/01 02:31:21;;;;;;;33.20;9.23;;;;;;;4.13;100.00;97584.59;5021858;28;20053;-56
2022/10/01 02:33:49;;;;;;;37.08;9.50;;;;;;;4.28;100.00;97587.72;5018011;28;20054;-56
2022/10/01 02:36:16;;;;;;;37.25;9.40;;;;;;;4.05;100.00;97587.34;5019813;28;20042;-56
2022/10/01 02:38:44;;;;;;;37.33;9.63;;;;;;;4.16;100.00;97584.53;5019817;28;20168;-54
2022/10/01 02:41:13;;;;;;;43.67;10.70;;;;;;;4.24;100.00;97577.47;5019249;28;20115;-56
2022/10/01 02:44:05;;;;;;;37.55;10.23;;;;;;;4.70;100.00;97570.38;5020972;28;20025;-55
2022/10/01 02:46:38;;;;;;;44.05;10.38;;;;;;;4.60;100.00;97553.41;5013758;28;20041;-55
2022/10/01 02:49:04;;;;;;;47.33;10.77;;;;;;;5.06;100.00;97562.59;5019208;28;20025;-56
2022/10/01 02:51:39;;;;;;;39.15;9.93;;;;;;;4.94;100.00;97558.56;5021249;28;20100;-56
2022/10/01 02:54:35;;;;;;;30.33;9.52;;;;;;;4.97;100.00;97563.69;5023029;28;20033;-56
2022/10/01 02:59:45;;;;;;;41.33;10.27;;;;;;;5.04;100.00;97559.22;5023684;28;20040;-54
2022/10/01 03:02:11;;;;;;;39.92;9.75;;;;;;;5.08;100.00;97557.41;5022676;28;20034;-57
2022/10/01 03:04:37;;;;;;;38.40;10.45;;;;;;;4.81;100.00;97552.03;5024477;28;20021;-54
2022/10/01 03:07:03;;;;;;;38.08;9.45;;;;;;;4.62;100.00;97541.31;5023668;28;20199;-54
2022/10/01 03:09:33;;;;;;;42.17;9.55;;;;;;;4.83;100.00;97548.53;5023106;28;20067;-55
2022/10/01 03:12:00;;;;;;;42.20;9.65;;;;;;;4.83;100.00;97545.94;5022115;28;20080;-55
2022/10/01 03:14:25;;;;;;;47.50;10.05;;;;;;;4.70;100.00;97539.38;5024099;28;20124;-58
2022/10/01 03:16:51;;;;;;;34.50;9.55;;;;;;;5.19;100.00;97542.44;5023236;28;20021;-57
2022/10/01 03:19:16;;;;;;;41.65;9.68;;;;;;;5.01;100.00;97554.09;5022730;28;20120;-53
2022/10/01 03:21:42;;;;;;;45.05;9.98;;;;;;;5.05;100.00;97547.13;5019606;28;20120;-54
2022/10/01 03:24:07;;;;;;;47.35;10.30;;;;;;;5.28;100.00;97537.03;5020153;28;20056;-55
2022/10/01 03:26:33;;;;;;;37.47;9.40;;;;;;;5.22;100.00;97538.03;5022616;28;20068;-54
2022/10/01 03:28:58;;;;;;;32.97;9.40;;;;;;;5.16;100.00;97537.34;5021525;28;20799;-55
2022/10/01 03:31:24;;;;;;;31.38;8.90;;;;;;;5.17;100.00;97534.72;5020876;28;20041;-54
2022/10/01 03:33:49;;;;;;;42.05;10.38;;;;;;;5.21;100.00;97536.31;5022194;28;20164;-54
2022/10/01 03:36:14;;;;;;;39.70;9.80;;;;;;;4.90;100.00;97535.44;5021513;28;20044;-54
2022/10/01 03:38:39;;;;;;;37.90;10.98;;;;;;;5.46;100.00;97540.84;5022440;28;20382;-55
2022/10/01 03:41:05;;;;;;;37.10;10.32;;;;;;;4.98;100.00;97534.38;5023426;28;20767;-54
2022/10/01 03:43:30;;;;;;;45.67;11.18;;;;;;;4.86;100.00;97533.84;5023318;28;20025;-54
2022/10/01 03:45:55;;;;;;;42.67;11.10;;;;;;;4.72;100.00;97529.00;5022743;28;20038;-55
2022/10/01 03:48:22;;;;;;;41.10;10.73;;;;;;;4.88;100.00;97519.13;5022655;28;20029;-55
2022/10/01 03:50:55;;;;;;;35.10;9.82;;;;;;;4.97;100.00;97516.31;5022240;28;20175;-54
2022/10/01 03:53:20;;;;;;;38.60;10.38;;;;;;;5.33;100.00;97521.38;5020763;28;20021;-54
2022/10/01 03:55:46;;;;;;;47.88;11.45;;;;;;;5.33;100.00;97529.13;5019148;28;20056;-54
2022/10/01 03:58:11;;;;;;;40.65;10.65;;;;;;;4.94;100.00;97513.81;5022430;28;20021;-53
2022/10/01 04:00:37;;;;;;;37.63;11.00;;;;;;;5.37;100.00;97516.09;5024487;28;20029;-53
2022/10/01 04:03:02;;;;;;;41.25;10.77;;;;;;;5.53;100.00;97526.84;5022758;28;20041;-53
2022/10/01 04:05:28;;;;;;;31.83;9.90;;;;;;;5.57;100.00;97522.44;5021988;28;20034;-54
2022/10/01 04:07:53;;;;;;;42.80;10.65;;;;;;;5.68;100.00;97519.53;5022200;28;20075;-54
2022/10/01 04:10:18;;;;;;;49.17;11.00;;;;;;;5.58;100.00;97518.94;5021589;28;20021;-55
2022/10/01 04:12:43;;;;;;;37.70;9.98;;;;;;;5.17;100.00;97506.28;5023202;28;20021;-54
2022/10/01 04:15:09;;;;;;;39.30;10.52;;;;;;;4.97;100.00;97496.47;5023111;28;20079;-54
2022/10/01 04:17:35;;;;;;;39.80;9.68;;;;;;;5.63;100.00;97490.38;5020291;28;20021;-54
2022/10/01 04:20:01;;;;;;;35.65;9.43;;;;;;;5.66;100.00;97487.66;5022174;28;20025;-54
2022/10/01 04:22:26;;;;;;;51.67;12.32;;;;;;;5.83;100.00;97498.38;5020208;28;20037;-53
2022/10/01 04:24:52;;;;;;;42.25;10.52;;;;;;;5.30;100.00;97493.88;5022392;28;20060;-53
2022/10/01 04:27:18;;;;;;;39.80;10.95;;;;;;;5.36;100.00;97487.66;5021971;28;20042;-54
2022/10/01 04:29:43;;;;;;;40.97;10.25;;;;;;;5.33;100.00;97482.56;5021074;28;20098;-55
2022/10/01 04:32:08;;;;;;;49.35;11.55;;;;;;;5.62;100.00;97489.50;5022292;28;20384;-56
2022/10/01 04:34:52;;;;;;;39.00;10.15;;;;;;;5.84;100.00;97481.94;5021917;28;20030;-56
2022/10/01 04:37:18;;;;;;;47.10;11.20;;;;;;;5.62;100.00;97499.84;5023896;28;20049;-56
2022/10/01 04:39:43;;;;;;;40.95;10.48;;;;;;;5.86;100.00;97490.50;5023450;28;20110;-53
2022/10/01 04:42:09;;;;;;;35.17;10.07;;;;;;;5.74;100.00;97490.91;5022350;28;20458;-55
2022/10/01 04:44:34;;;;;;;47.55;12.02;;;;;;;5.67;100.00;97486.78;5020553;28;20030;-55
2022/10/01 04:47:00;;;;;;;30.20;10.20;;;;;;;5.52;100.00;97483.75;5020245;28;20129;-55
2022/10/01 04:49:25;;;;;;;47.03;12.20;;;;;;;5.76;100.00;97482.19;5022049;28;20026;-55
2022/10/01 04:51:50;;;;;;;57.35;12.57;;;;;;;5.73;100.00;97471.91;5020510;28;20482;-57
2022/10/01 04:54:16;;;;;;;46.97;11.80;;;;;;;5.36;100.00;97477.31;5023630;28;20035;-56
2022/10/01 04:56:41;;;;;;;46.35;11.60;;;;;;;5.40;100.00;97484.09;5020373;28;20041;-56
2022/10/01 04:59:06;;;;;;;42.63;11.00;;;;;;;5.81;100.00;97484.66;5020955;28;20026;-54
2022/10/01 05:01:32;;;;;;;56.60;12.30;;;;;;;6.06;100.00;97494.28;5021447;28;20040;-57
2022/10/01 05:03:57;;;;;;;44.13;11.10;;;;;;;5.89;100.00;97503.38;5021711;28;20021;-58
2022/10/01 05:06:23;;;;;;;50.65;13.15;;;;;;;5.97;100.00;97500.56;5020100;28;20033;-57
2022/10/01 05:08:48;;;;;;;42.88;11.95;;;;;;;5.98;100.00;97492.75;5021153;28;20025;-54
2022/10/01 05:11:14;;;;;;;41.97;11.35;;;;;;;5.66;100.00;97503.19;5019282;28;20048;-54
2022/10/01 05:13:40;;;;;;;43.08;11.02;;;;;;;5.58;100.00;97501.69;5021427;28;20656;-55
2022/10/01 05:16:06;;;;;;;46.10;12.25;;;;;;;5.72;100.00;97508.22;5019391;28;20180;-55
2022/10/01 05:18:31;;;;;;;43.22;12.15;;;;;;;5.88;100.00;97506.88;5022583;28;20386;-54
2022/10/01 05:20:57;;;;;;;49.58;12.20;;;;;;;5.64;100.00;97502.41;5020455;28;20767;-55
2022/10/01 05:23:22;;;;;;;39.28;11.48;;;;;;;5.97;100.00;97511.78;5021370;28;20033;-54
2022/10/01 05:25:47;;;;;;;55.50;12.88;;;;;;;5.93;100.00;97499.78;5020431;28;20038;-54
2022/10/01 05:28:14;;;;;;;49.63;12.10;;;;;;;5.65;100.00;97494.59;5020757;28;20033;-56
2022/10/01 05:30:39;;;;;;;42.45;12.13;;;;;;;6.13;100.00;97500.97;5022382;28;20037;-55
2022/10/01 05:33:05;;;;;;;40.88;11.95;;;;;;;6.02;100.00;97492.69;5020953;28;20032;-56
2022/10/01 05:35:30;;;;;;;49.60;12.23;;;;;;;6.16;100.00;97496.53;5021156;28;20145;-54
2022/10/01 05:37:58;;;;;;;55.28;13.10;;;;;;;6.13;100.00;97494.03;5019163;28;20511;-56
2022/10/01 05:40:26;;;;;;;50.25;12.07;;;;;;;6.03;100.00;97494.34;5020661;28;20034;-56
2022/10/01 05:42:52;;;;;;;40.28;11.43;;;;;;;6.26;100.00;97498.84;5020315;28;20516;-54
2022/10/01 05:45:21;;;;;;;48.97;11.98;;;;;;;6.25;100.00;97500.59;5018268;28;20029;-55
2022/10/01 05:47:47;;;;;;;42.97;11.98;;;;;;;5.89;100.00;97505.97;5019700;28;20030;-55
2022/10/01 05:50:13;;;;;;;61.13;13.73;;;;;;;6.08;100.00;97505.41;5018375;28;20017;-56
2022/10/01 05:52:41;;;;;;;35.47;11.15;;;;;;;6.14;100.00;97507.84;5017133;28;20791;-56
2022/10/01 05:55:07;;;;;;;45.60;11.70;;;;;;;5.95;100.00;97508.38;5016813;28;20847;-54
2022/10/01 05:57:32;;;;;;;42.63;11.82;;;;;;;6.14;100.00;97503.50;5019683;28;20036;-55
2022/10/01 05:59:57;;;;;;;52.97;13.20;;;;;;;6.36;100.00;97502.84;5018083;28;20109;-57
2022/10/01 06:02:23;;;;;;;42.20;12.07;;;;;;;6.35;100.00;97491.59;5020442;28;20037;-55
2022/10/01 06:04:48;;;;;;;40.90;11.93;;;;;;;6.41;100.00;97494.91;5019853;28;20473;-58
2022/10/01 06:07:14;;;;;;;39.83;11.70;;;;;;;6.54;100.00;97485.81;5019902;28;20808;-55
2022/10/01 06:09:39;;;;;;;55.40;12.55;;;;;;;6.22;100.00;97487.72;5020486;28;20033;-54
2022/10/01 06:12:08;;;;;;;38.80;12.13;;;;;;;6.60;100.00;97488.22;5020253;28;20033;-54
2022/10/01 06:14:34;;;;;;;42.63;13.27;;;;;;;6.57;100.00;97491.75;5022317;28;20116;-54
2022/10/01 06:16:59;;;;;;;43.97;13.25;;;;;;;6.72;100.00;97484.38;5018996;28;20282;-54
2022/10/01 06:19:24;;;;;;;44.83;12.88;;;;;;;6.64;100.00;97479.44;5018915;28;20028;-56
2022/10/01 06:21:50;;;;;;;58.55;13.98;;;;;;;7.22;100.00;97471.38;5020105;28;20045;-55
2022/10/01 06:24:15;;;;;;;43.13;12.38;;;;;;;7.37;100.00;97470.00;5020040;28;20128;-55
2022/10/01 06:26:41;;;;;;;43.63;13.32;;;;;;;7.38;100.00;97474.28;5018021;28;20041;-56
2022/10/01 06:29:06;;;;;;;40.20;13.15;;;;;;;7.94;100.00;97474.78;5023655;28;20033;-56
2022/10/01 06:31:32;;;;;;;34.38;10.93;;;;;;;7.44;100.00;97476.63;5025302;28;20377;-54
2022/10/01 06:33:57;;;;;;;47.42;12.85;;;;;;;7.43;100.00;97464.56;5022128;28;20445;-55
2022/10/01 06:36:22;;;;;;;42.20;13.45;;;;;;;7.81;100.00;97464.91;5022829;28;20667;-55
2022/10/01 06:38:48;;;;;;;37.60;12.15;;;;;;;8.07;100.00;97463.88;5024172;28;20957;-55
2022/10/01 06:41:13;;;;;;;39.38;13.43;;;;;;;8.15;100.00;97458.38;5022634;28;20044;-56
2022/10/01 06:43:39;;;;;;;42.90;13.35;;;;;;;8.29;100.00;97466.47;5023432;28;20033;-54
2022/10/01 06:46:04;;;;;;;41.80;12.77;;;;;;;8.74;100.00;97458.63;5021749;28;20077;-54
2022/10/01 06:48:31;;;;;;;35.67;12.27;;;;;;;8.70;100.00;97457.06;5022233;28;20041;-56
2022/10/01 06:50:57;;;;;;;45.47;13.85;;;;;;;8.92;100.00;97459.59;5022586;28;20045;-55
2022/10/01 06:53:23;;;;;;;37.30;11.32;;;;;;;9.06;100.00;97460.69;5022794;28;20487;-54
2022/10/01 06:55:48;;;;;;;52.45;13.77;;;;;;;9.28;100.00;97459.72;5018634;28;20044;-56
2022/10/01 06:58:14;;;;;;;45.75;13.05;;;;;;;9.39;100.00;97457.50;5021748;28;20036;-55
2022/10/01 07:00:40;;;;;;;36.35;11.70;;;;;;;9.40;100.00;97459.19;5022237;28;20037;-56
2022/10/01 07:03:11;;;;;;;41.92;12.52;;;;;;;9.35;100.00;97455.94;5017779;28;20026;-54
2022/10/01 07:05:37;;;;;;;34.60;10.70;;;;;;;9.71;100.00;97460.41;5022951;28;20038;-54
2022/10/01 07:08:03;;;;;;;37.25;12.00;;;;;;;9.76;100.00;97458.44;5028409;28;20021;-54
2022/10/01 07:10:30;;;;;;;33.40;11.80;;;;;;;10.31;100.00;97456.75;5025191;28;20053;-57
2022/10/01 07:13:05;;;;;;;36.05;11.52;;;;;;;9.93;100.00;97447.22;5025070;28;20391;-59
2022/10/01 07:15:30;;;;;;;32.83;10.93;;;;;;;10.10;100.00;97446.41;5025103;28;20041;-55
2022/10/01 07:17:55;;;;;;;32.80;11.32;;;;;;;10.05;100.00;97448.38;5025000;28;20107;-55
2022/10/01 07:20:21;;;;;;;34.30;10.90;;;;;;;10.06;100.00;97452.69;5024899;28;20033;-54
2022/10/01 07:22:47;;;;;;;33.15;10.45;;;;;;;10.03;100.00;97443.28;5022689;28;20033;-55
2022/10/01 07:25:13;;;;;;;27.65;8.95;;;;;;;10.16;100.00;97446.13;5023565;28;20140;-55
2022/10/01 07:27:39;;;;;;;31.35;10.05;;;;;;;10.21;100.00;97449.34;5025640;28;20128;-58
2022/10/01 07:30:06;;;;;;;33.03;10.75;;;;;;;9.82;100.00;97439.91;5037339;28;20047;-55
2022/10/01 07:32:34;;;;;;;29.73;9.35;;;;;;;9.88;100.00;97443.13;5024128;28;20113;-55
2022/10/01 07:34:59;;;;;;;31.38;8.63;;;;;;;10.23;100.00;97449.25;5025397;28;20113;-56
2022/10/01 07:37:24;;;;;;;28.17;8.43;;;;;;;10.45;100.00;97449.09;5013965;28;20041;-57
2022/10/01 07:39:50;;;;;;;26.05;8.10;;;;;;;9.98;100.00;97440.03;5022923;28;20021;-57
2022/10/01 07:42:15;;;;;;;32.00;8.98;;;;;;;10.30;100.00;97449.81;5022123;28;20099;-56
2022/10/01 07:44:42;;;;;;;28.20;9.25;;;;;;;10.04;100.00;97442.34;5022560;28;20833;-58
2022/10/01 07:47:07;;;;;;;27.17;8.13;;;;;;;10.52;100.00;97450.47;5021368;28;20123;-58
2022/10/01 07:49:32;;;;;;;23.55;8.50;;;;;;;10.49;100.00;97450.63;5021938;28;20280;-58
2022/10/01 07:51:58;;;;;;;35.78;9.60;;;;;;;10.19;100.00;97453.78;5022255;28;20033;-57
2022/10/01 07:54:24;;;;;;;26.38;7.32;;;;;;;10.34;100.00;97454.00;5024639;28;20036;-57
2022/10/01 07:56:54;;;;;;;26.05;7.90;;;;;;;10.32;100.00;97442.81;5026463;28;20127;-56
2022/10/01 07:59:23;;;;;;;28.45;9.43;;;;;;;10.19;100.00;97453.78;5024898;28;20426;-56
2022/10/01 08:01:53;;;;;;;31.58;8.70;;;;;;;10.19;100.00;97442.53;5023396;28;20056;-54
2022/10/01 08:07:06;;;;;;;26.85;8.60;;;;;;;10.39;100.00;97449.41;5023860;28;20502;-56
2022/10/01 08:09:31;;;;;;;28.42;8.82;;;;;;;10.44;100.00;97452.63;5024596;28;20098;-55
2022/10/01 08:11:57;;;;;;;26.58;8.45;;;;;;;10.27;100.00;97445.59;5023019;28;20911;-56
2022/10/01 08:14:22;;;;;;;29.77;9.18;;;;;;;10.22;100.00;97453.63;5024472;28;20025;-55
2022/10/01 08:16:48;;;;;;;32.38;9.25;;;;;;;10.09;100.00;97451.69;5022072;28;20029;-54
2022/10/01 08:19:14;;;;;;;33.22;9.63;;;;;;;10.45;100.00;97456.91;5023119;28;20501;-54
2022/10/01 08:21:39;;;;;;;25.80;8.38;;;;;;;10.58;100.00;97460.59;5024176;28;20073;-54
2022/10/01 08:24:05;;;;;;;28.05;8.27;;;;;;;10.33;100.00;97465.31;5024617;28;20411;-54
2022/10/01 08:26:31;;;;;;;23.95;8.52;;;;;;;10.56;100.00;97466.81;5022816;28;20284;-54
2022/10/01 08:28:56;;;;;;;29.08;9.00;;;;;;;10.37;100.00;97475.53;5024010;28;20188;-55
2022/10/01 08:31:22;;;;;;;32.92;9.55;;;;;;;10.48;100.00;97471.59;5023669;28;20470;-54
2022/10/01 08:33:48;;;;;;;29.58;8.52;;;;;;;10.53;100.00;97475.66;5023955;28;20033;-55
2022/10/01 08:36:13;;;;;;;28.63;8.68;;;;;;;10.42;100.00;97472.69;5024343;28;20059;-58
2022/10/01 08:38:39;;;;;;;50.50;8.27;;;;;;;10.23;100.00;97468.34;5023272;28;20087;-55
2022/10/01 08:41:16;;;;;;;23.83;8.80;;;;;;;10.15;100.00;97464.44;5024427;28;20037;-56
2022/10/01 08:43:41;;;;;;;29.02;8.15;;;;;;;10.26;100.00;97456.94;5024372;28;20021;-54
2022/10/01 08:46:16;;;;;;;30.98;8.55;;;;;;;10.57;100.00;97452.88;5020664;28;20065;-56
2022/10/01 08:48:50;;;;;;;31.50;10.77;;;;;;;9.97;100.00;97453.97;5022663;28;20210;-54
2022/10/01 08:51:26;;;;;;;42.45;12.30;;;;;;;10.36;100.00;97454.75;5023211;28;20389;-56
2022/10/01 08:53:54;;;;;;;35.85;12.75;;;;;;;10.26;100.00;97437.88;5022238;28;20033;-59
2022/10/01 08:56:28;;;;;;;39.00;12.02;;;;;;;9.70;100.00;97445.66;5023403;28;20045;-59
2022/10/01 08:58:59;;;;;;;34.72;13.10;;;;;;;9.94;100.00;97448.88;5021896;28;20021;-55
2022/10/01 09:01:28;;;;;;;30.10;11.73;;;;;;;10.13;100.00;97443.66;5020912;28;20143;-59
2022/10/01 09:03:55;;;;;;;33.55;10.77;;;;;;;10.43;100.00;97419.66;5022805;28;20098;-55
2022/10/01 09:06:24;;;;;;;39.47;13.45;;;;;;;10.23;100.00;97425.81;5022830;28;20042;-55
2022/10/01 09:09:12;;;;;;;39.28;11.07;;;;;;;10.12;100.00;97405.47;5022645;28;20556;-55
2022/10/01 09:12:03;;;;;;;34.40;10.98;;;;;;;10.04;100.00;97381.56;5020565;28;20038;-56
2022/10/01 09:14:35;;;;;;;35.28;11.68;;;;;;;9.95;100.00;97361.19;5025127;28;20620;-56
2022/10/01 09:17:22;;;;;;;35.03;11.27;;;;;;;10.09;100.00;97358.75;5023444;28;20649;-56
2022/10/01 09:20:24;;;;;;;34.78;11.20;;;;;;;10.54;100.00;97339.13;5024780;28;20029;-58
2022/10/01 09:23:17;;;;;;;33.17;10.00;;;;;;;10.52;100.00;97358.38;5013898;28;20037;-58
2022/10/01 09:25:44;;;;;;;;;;;;;;;10.23;100.00;97342.41;5020768;28;20310;-55
2022/10/01 09:28:22;;;;;;;35.75;11.55;;;;;;;10.44;100.00;97353.56;5021597;28;20260;-56
2022/10/01 09:30:54;;;;;;;35.78;11.57;;;;;;;10.52;100.00;97340.13;5023352;28;20060;-55
2022/10/01 09:33:20;;;;;;;;;;;;;;;10.56;100.00;97344.25;5023739;28;20025;-55
2022/10/01 09:36:11;;;;;;;42.38;9.82;;;;;;;10.66;100.00;97331.56;5021915;28;19955;-55
2022/10/01 09:38:42;;;;;;;36.08;10.35;;;;;;;11.00;100.00;97331.47;5019186;28;20463;-56
2022/10/01 09:41:13;;;;;;;35.25;10.02;;;;;;;10.64;100.00;97328.22;5022133;28;20041;-55
2022/10/01 09:43:42;;;;;;;29.95;10.63;;;;;;;10.83;100.00;97333.31;5022248;28;20049;-55
2022/10/01 09:46:13;;;;;;;33.20;9.93;;;;;;;10.40;100.00;97337.22;5021857;28;20716;-55
2022/10/01 09:49:00;;;;;;;31.35;10.13;;;;;;;10.67;100.00;97325.44;5024017;28;20021;-57
2022/10/01 09:51:31;;;;;;;42.15;10.85;;;;;;;10.68;100.00;97319.28;5021308;28;20045;-55
2022/10/01 09:54:11;;;;;;;26.23;8.82;;;;;;;10.87;100.00;97313.97;5022530;28;20120;-58
2022/10/01 09:56:42;;;;;;;26.35;8.40;;;;;;;10.74;100.00;97313.78;5021606;28;20041;-56
2022/10/01 09:59:16;;;;;;;26.95;8.88;;;;;;;10.61;100.00;97308.38;5025275;28;20036;-57
2022/10/01 10:01:52;;;;;;;27.38;8.45;;;;;;;11.12;100.00;97293.47;5024272;28;20044;-54
2022/10/01 10:04:19;;;;;;;31.10;9.55;;;;;;;11.13;100.00;97304.75;5026692;28;20033;-56
2022/10/01 10:06:46;;;;;;;29.58;9.23;;;;;;;10.48;100.00;97302.94;5027103;28;20045;-57
2022/10/01 10:09:17;;;;;;;27.13;7.32;;;;;;;11.10;100.00;97284.03;5026670;28;20025;-55
2022/10/01 10:11:44;;;;;;;33.45;8.88;;;;;;;10.61;100.00;97288.34;5030070;28;20060;-56
2022/10/01 10:14:19;;;;;;;27.83;9.05;;;;;;;10.58;100.00;97296.31;5027115;28;20056;-55
2022/10/01 10:16:47;;;;;;;39.35;10.10;;;;;;;10.76;100.00;97291.06;5025173;28;20063;-55
2022/10/01 10:19:29;;;;;;;23.77;9.20;;;;;;;10.67;100.00;97291.56;5026457;28;20765;-57
2022/10/01 10:21:59;;;;;;;;;;;;;;;10.52;100.00;97299.25;5027463;28;20050;-56
2022/10/01 10:24:34;;;;;;;25.15;7.65;;;;;;;10.32;100.00;97286.41;5027710;28;19912;-56
2022/10/01 10:27:02;;;;;;;24.60;8.38;;;;;;;10.58;100.00;97296.31;5026053;28;20198;-56
2022/10/01 10:29:33;;;;;;;33.83;8.60;;;;;;;10.43;100.00;97294.50;5025088;28;20088;-54
2022/10/01 10:32:03;;;;;;;29.40;7.78;;;;;;;10.79;100.00;97283.91;5025556;28;20506;-58
2022/10/01 10:34:40;;;;;;;27.75;7.90;;;;;;;10.60;100.00;97297.09;5025196;28;20033;-55
2022/10/01 10:37:12;;;;;;;26.88;8.48;;;;;;;10.86;100.00;97297.47;5025091;28;20044;-57
2022/10/01 10:39:40;;;;;;;25.30;7.95;;;;;;;10.54;100.00;97297.41;5025694;28;20147;-56
2022/10/01 10:42:07;;;;;;;26.92;8.43;;;;;;;10.91;100.00;97295.44;5024046;28;20526;-57
2022/10/01 10:44:38;;;;;;;24.90;7.78;;;;;;;10.89;100.00;97292.09;5025908;28;20028;-56
2022/10/01 10:47:07;;;;;;;25.00;6.80;;;;;;;10.77;100.00;97298.81;5025765;28;20391;-57
2022/10/01 10:49:42;;;;;;;23.98;6.80;;;;;;;10.97;100.00;97294.28;5026579;28;20026;-57
2022/10/01 10:52:31;;;;;;;27.38;7.95;;;;;;;11.22;100.00;97292.97;5026284;28;20068;-56
2022/10/01 10:54:58;;;;;;;25.35;7.40;;;;;;;11.09;100.00;97288.41;5027191;28;20040;-57
2022/10/01 10:57:32;;;;;;;27.88;7.75;;;;;;;11.31;100.00;97277.63;5026784;28;20041;-56
2022/10/01 11:00:17;;;;;;;24.38;7.30;;;;;;;11.40;100.00;97280.66;5026966;28;20032;-56
2022/10/01 11:03:13;;;;;;;24.55;7.13;;;;;;;10.90;100.00;97285.97;5003380;28;20609;-60
2022/10/01 11:05:41;;;;;;;33.83;8.77;;;;;;;11.27;100.00;97286.56;4990498;28;20042;-59
2022/10/01 11:08:12;;;;;;;20.35;7.32;;;;;;;11.19;100.00;97288.72;5003460;28;20348;-56
2022/10/01 11:10:40;;;;;;;25.73;7.45;;;;;;;11.21;100.00;97281.66;5003044;28;20030;-58
2022/10/01 11:13:37;;;;;;;25.23;7.13;;;;;;;11.19;100.00;97273.06;5002739;28;20034;-56
2022/10/01 11:16:27;;;;;;;23.40;7.45;;;;;;;11.29;100.00;97279.47;4996917;28;20063;-57
2022/10/01 11:19:00;;;;;;;23.27;7.05;;;;;;;11.23;100.00;97273.75;5003447;28;20112;-56
2022/10/01 11:21:54;;;;;;;25.52;7.25;;;;;;;11.34;100.00;97279.22;5002668;28;20100;-57
2022/10/01 11:24:31;;;;;;;23.30;6.50;;;;;;;11.03;100.00;97274.84;5002640;28;20404;-57
2022/10/01 11:27:23;;;;;;;24.75;7.07;;;;;;;11.22;100.00;97267.69;5002085;28;20040;-58
2022/10/01 11:30:03;;;;;;;22.83;6.72;;;;;;;11.24;100.00;97268.44;5002791;28;20022;-59
2022/10/01 11:32:37;;;;;;;26.30;7.05;;;;;;;11.14;100.00;97273.34;5005145;28;20119;-57
2022/10/01 11:35:25;;;;;;;25.13;7.28;;;;;;;11.47;100.00;97287.19;5005372;28;20393;-56
2022/10/01 11:37:50;;;;;;;28.48;7.10;;;;;;;11.01;100.00;97293.22;5005094;28;20061;-56